createdAt,value
2023-05-06T00:01:49.563Z,101632.64
2023-05-06T00:04:16.590Z,101630.55
2023-05-06T00:06:44.032Z,101632.17
2023-05-06T00:09:11.138Z,101630.48
2023-05-06T00:11:38.141Z,101628.22
2023-05-06T00:14:05.129Z,101630.89
2023-05-06T00:16:32.251Z,101632.02
2023-05-06T00:18:59.207Z,101630.49
2023-05-06T00:21:27.257Z,101633.02
2023-05-06T00:23:54.235Z,101633.59
2023-05-06T00:26:21.205Z,101637.88
2023-05-06T00:28:48.163Z,101643.89
2023-05-06T00:31:15.235Z,101650.58
2023-05-06T00:33:42.232Z,101661.83
2023-05-06T00:36:09.484Z,101666.15
2023-05-06T00:38:36.500Z,101669.25
2023-05-06T00:41:03.578Z,101672.75
2023-05-06T00:43:30.531Z,101676.39
2023-05-06T00:45:57.546Z,101678.66
2023-05-06T00:48:24.570Z,101679.29
2023-05-06T00:50:51.605Z,101680.10
2023-05-06T00:53:19.931Z,101683.42
2023-05-06T00:55:46.893Z,101681.90
2023-05-06T00:58:14.078Z,101683.28
2023-05-06T01:00:42.522Z,101680.05
2023-05-06T01:03:09.704Z,101682.67
2023-05-06T01:05:44.158Z,101683.94
2023-05-06T01:08:19.814Z,101679.09
2023-05-06T01:10:52.409Z,101679.87
2023-05-06T01:13:39.259Z,101682.52
2023-05-06T01:16:06.377Z,101682.56
2023-05-06T01:18:33.463Z,101684.05
2023-05-06T01:21:00.495Z,101679.21
2023-05-06T01:23:27.563Z,101678.60
2023-05-06T01:25:54.535Z,101680.00
2023-05-06T01:28:22.015Z,101677.91
2023-05-06T01:30:58.256Z,101674.88
2023-05-06T01:33:53.212Z,101678.13
2023-05-06T01:36:38.609Z,101675.19
2023-05-06T01:39:27.232Z,101677.02
2023-05-06T01:41:54.952Z,101679.55
2023-05-06T01:44:22.293Z,101675.94
2023-05-06T01:46:50.034Z,101675.89
2023-05-06T01:49:18.128Z,101676.85
2023-05-06T01:51:48.672Z,101676.85
2023-05-06T01:54:15.688Z,101677.19
2023-05-06T01:56:42.694Z,101673.60
2023-05-06T01:59:09.911Z,101677.85
2023-05-06T02:01:36.902Z,101685.30
2023-05-06T02:04:04.345Z,101684.56
2023-05-06T02:06:31.865Z,101691.84
2023-05-06T02:08:59.166Z,101691.37
2023-05-06T02:11:26.808Z,101690.36
2023-05-06T02:13:59.321Z,101692.14
2023-05-06T02:16:29.560Z,101695.48
2023-05-06T02:18:56.615Z,101691.16
2023-05-06T02:21:23.730Z,101695.19
2023-05-06T02:23:50.908Z,101689.71
2023-05-06T02:26:17.909Z,101690.26
2023-05-06T02:28:44.879Z,101690.30
2023-05-06T02:31:16.083Z,101684.00
2023-05-06T02:33:43.733Z,101686.34
2023-05-06T02:36:11.438Z,101686.35
2023-05-06T02:38:38.658Z,101684.79
2023-05-06T02:41:05.646Z,101684.30
2023-05-06T02:43:32.681Z,101682.23
2023-05-06T02:45:59.683Z,101678.56
2023-05-06T02:48:26.783Z,101676.09
2023-05-06T02:50:53.745Z,101677.84
2023-05-06T02:53:20.900Z,101675.36
2023-05-06T02:55:47.856Z,101676.26
2023-05-06T02:58:14.842Z,101676.52
2023-05-06T03:00:41.888Z,101682.66
2023-05-06T03:03:09.274Z,101688.52
2023-05-06T03:05:36.284Z,101689.65
2023-05-06T03:08:03.297Z,101694.46
2023-05-06T03:10:30.890Z,101702.35
2023-05-06T03:12:58.270Z,101706.86
2023-05-06T03:15:25.485Z,101710.45
2023-05-06T03:17:53.871Z,101721.04
2023-05-06T03:20:21.581Z,101723.27
2023-05-06T03:22:51.813Z,101725.84
2023-05-06T03:25:19.088Z,101735.02
2023-05-06T03:27:46.394Z,101739.78
2023-05-06T03:30:17.700Z,101741.31
2023-05-06T03:32:45.026Z,101743.00
2023-05-06T03:35:14.324Z,101746.89
2023-05-06T03:37:42.593Z,101746.30
2023-05-06T03:40:09.901Z,101744.40
2023-05-06T03:42:36.988Z,101745.91
2023-05-06T03:45:06.635Z,101745.98
2023-05-06T03:47:34.155Z,101750.80
2023-05-06T03:50:01.736Z,101753.73
2023-05-06T03:52:29.884Z,101756.55
2023-05-06T03:54:57.037Z,101759.09
2023-05-06T03:57:24.432Z,101758.02
2023-05-06T03:59:51.603Z,101756.13
2023-05-06T04:02:18.812Z,101753.84
2023-05-06T04:04:45.863Z,101754.90
2023-05-06T04:07:12.864Z,101754.56
2023-05-06T04:09:39.905Z,101755.19
2023-05-06T04:12:07.860Z,101755.13
2023-05-06T04:14:35.190Z,101755.34
2023-05-06T04:17:02.713Z,101757.61
2023-05-06T04:19:30.294Z,101759.67
2023-05-06T04:21:58.576Z,101761.55
2023-05-06T04:24:28.105Z,101764.39
2023-05-06T04:26:55.922Z,101766.38
2023-05-06T04:29:23.564Z,101768.97
2023-05-06T04:31:57.869Z,101768.04
2023-05-06T04:34:27.944Z,101769.52
2023-05-06T04:36:55.518Z,101763.87
2023-05-06T04:39:48.723Z,101769.98
2023-05-06T04:42:18.917Z,101770.32
2023-05-06T04:44:52.948Z,101768.58
2023-05-06T04:47:22.320Z,101767.79
2023-05-06T04:49:50.534Z,101768.09
2023-05-06T04:52:18.337Z,101767.77
2023-05-06T04:54:45.775Z,101770.77
2023-05-06T04:57:13.101Z,101773.59
2023-05-06T04:59:41.856Z,101772.23
2023-05-06T05:02:08.881Z,101775.04
2023-05-06T05:04:36.716Z,101775.25
2023-05-06T05:07:03.680Z,101777.98
2023-05-06T05:09:31.289Z,101783.66
2023-05-06T05:11:58.554Z,101780.67
2023-05-06T05:14:26.180Z,101784.39
2023-05-06T05:16:53.343Z,101783.40
2023-05-06T05:19:21.445Z,101786.27
2023-05-06T05:21:49.280Z,101786.52
2023-05-06T05:24:16.428Z,101787.67
2023-05-06T05:26:43.630Z,101790.31
2023-05-06T05:29:11.354Z,101796.34
2023-05-06T05:31:38.612Z,101791.71
2023-05-06T05:34:06.838Z,101788.98
2023-05-06T05:36:33.797Z,101785.52
2023-05-06T05:39:02.880Z,101785.57
2023-05-06T05:41:30.786Z,101783.36
2023-05-06T05:43:57.756Z,101787.23
2023-05-06T05:46:25.730Z,101787.77
2023-05-06T05:48:52.758Z,101784.47
2023-05-06T05:51:20.879Z,101795.35
2023-05-06T05:53:49.156Z,101791.67
2023-05-06T05:56:16.896Z,101789.45
2023-05-06T05:58:45.107Z,101787.23
2023-05-06T06:01:12.112Z,101790.51
2023-05-06T06:03:39.192Z,101790.13
2023-05-06T06:06:06.816Z,101789.55
2023-05-06T06:08:34.124Z,101785.44
2023-05-06T06:11:04.111Z,101788.37
2023-05-06T06:13:35.393Z,101790.39
2023-05-06T06:16:02.395Z,101792.63
2023-05-06T06:18:29.523Z,101794.30
2023-05-06T06:20:57.237Z,101797.60
2023-05-06T06:23:24.676Z,101798.55
2023-05-06T06:25:51.745Z,101796.41
2023-05-06T06:28:18.777Z,101799.69
2023-05-06T06:30:46.064Z,101804.02
2023-05-06T06:33:13.052Z,101808.45
2023-05-06T06:35:40.426Z,101812.02
2023-05-06T06:38:07.483Z,101816.02
2023-05-06T06:40:34.489Z,101818.55
2023-05-06T06:43:01.926Z,101822.70
2023-05-06T06:45:48.931Z,101821.02
2023-05-06T06:48:16.748Z,101823.06
2023-05-06T06:50:43.763Z,101831.80
2023-05-06T06:53:11.225Z,101840.19
2023-05-06T06:55:38.240Z,101843.52
2023-05-06T06:58:05.499Z,101845.58
2023-05-06T07:00:32.519Z,101838.50
2023-05-06T07:02:59.539Z,101836.64
2023-05-06T07:05:29.450Z,101835.11
2023-05-06T07:07:56.632Z,101839.16
2023-05-06T07:10:23.609Z,101838.43
2023-05-06T07:12:50.591Z,101836.42
2023-05-06T07:15:17.571Z,101842.66
2023-05-06T07:17:45.127Z,101849.33
2023-05-06T07:20:12.725Z,101851.06
2023-05-06T07:22:41.438Z,101855.65
2023-05-06T07:25:09.044Z,101858.75
2023-05-06T07:27:36.313Z,101857.98
2023-05-06T07:30:03.607Z,101863.34
2023-05-06T07:32:30.999Z,101865.73
2023-05-06T07:34:58.031Z,101867.46
2023-05-06T07:37:25.055Z,101868.77
2023-05-06T07:39:52.032Z,101866.73
2023-05-06T07:42:19.056Z,101876.89
2023-05-06T07:44:45.994Z,101878.71
2023-05-06T07:47:27.224Z,101884.88
2023-05-06T07:49:54.859Z,101879.59
2023-05-06T07:52:22.889Z,101879.44
2023-05-06T07:54:50.005Z,101878.32
2023-05-06T07:57:17.191Z,101881.02
2023-05-06T07:59:46.937Z,101884.68
2023-05-06T08:02:14.249Z,101886.31
2023-05-06T08:04:41.269Z,101891.59
2023-05-06T08:07:08.251Z,101891.98
2023-05-06T08:09:35.211Z,101894.95
2023-05-06T08:12:02.680Z,101892.95
2023-05-06T08:14:29.804Z,101894.55
2023-05-06T08:16:56.767Z,101898.33
2023-05-06T08:19:23.787Z,101899.71
2023-05-06T08:21:51.665Z,101906.98
2023-05-06T08:24:18.782Z,101910.70
2023-05-06T08:26:45.930Z,101911.98
2023-05-06T08:29:13.636Z,101911.52
2023-05-06T08:31:40.677Z,101913.73
2023-05-06T08:34:07.790Z,101914.85
2023-05-06T08:36:34.746Z,101916.44
2023-05-06T08:39:01.735Z,101919.02
2023-05-06T08:41:28.869Z,101924.18
2023-05-06T08:43:55.830Z,101926.97
2023-05-06T08:46:23.153Z,101927.71
2023-05-06T08:48:50.168Z,101929.73
2023-05-06T08:51:17.213Z,101928.95
2023-05-06T08:53:47.920Z,101925.69
2023-05-06T08:56:15.142Z,101926.65
2023-05-06T08:58:46.922Z,101924.71
2023-05-06T09:01:14.178Z,101923.54
2023-05-06T09:03:41.278Z,101925.39
2023-05-06T09:06:08.392Z,101929.39
2023-05-06T09:08:36.363Z,101928.92
2023-05-06T09:11:03.443Z,101932.58
2023-05-06T09:13:30.993Z,101931.66
2023-05-06T09:15:57.952Z,101931.05
2023-05-06T09:18:24.918Z,101929.86
2023-05-06T09:20:51.909Z,101928.13
2023-05-06T09:23:19.139Z,101926.84
2023-05-06T09:25:47.187Z,101925.16
2023-05-06T09:28:14.488Z,101921.28
2023-05-06T09:30:42.342Z,101922.64
2023-05-06T09:33:10.096Z,101918.60
2023-05-06T09:35:38.452Z,101911.86
2023-05-06T09:38:07.143Z,101916.83
2023-05-06T09:40:37.725Z,101917.91
2023-05-06T09:43:05.445Z,101918.71
2023-05-06T09:45:33.294Z,101918.38
2023-05-06T09:48:00.723Z,101920.00
2023-05-06T09:50:27.798Z,101917.89
2023-05-06T09:52:55.798Z,101914.73
2023-05-06T09:55:23.335Z,101918.23
2023-05-06T09:57:50.531Z,101917.41
2023-05-06T10:00:17.859Z,101914.59
2023-05-06T10:02:45.815Z,101915.02
2023-05-06T10:05:13.756Z,101917.36
2023-05-06T10:07:42.438Z,101919.53
2023-05-06T10:10:11.240Z,101919.28
2023-05-06T10:12:38.343Z,101920.48
2023-05-06T10:15:06.194Z,101918.73
2023-05-06T10:17:33.213Z,101919.08
2023-05-06T10:20:00.955Z,101919.58
2023-05-06T10:22:37.060Z,101915.75
2023-05-06T10:25:06.484Z,101918.96
2023-05-06T10:27:36.001Z,101921.84
2023-05-06T10:30:03.190Z,101921.18
2023-05-06T10:32:32.327Z,101926.50
2023-05-06T10:35:06.401Z,101923.23
2023-05-06T10:37:33.371Z,101927.98
2023-05-06T10:40:00.362Z,101928.54
2023-05-06T10:42:28.580Z,101931.38
2023-05-06T10:44:59.665Z,101934.52
2023-05-06T10:47:27.082Z,101932.14
2023-05-06T10:50:22.069Z,101933.00
2023-05-06T10:52:51.916Z,101931.03
2023-05-06T10:55:29.322Z,101928.91
2023-05-06T10:58:04.000Z,101931.02
2023-05-06T11:00:31.974Z,101929.13
2023-05-06T11:03:01.998Z,101933.50
2023-05-06T11:05:29.194Z,101931.61
2023-05-06T11:08:21.561Z,101930.55
2023-05-06T11:10:48.496Z,101934.13
2023-05-06T11:13:19.871Z,101930.31
2023-05-06T11:15:47.502Z,101934.09
2023-05-06T11:18:27.775Z,101937.54
2023-05-06T11:21:02.734Z,101937.96
2023-05-06T11:23:42.553Z,101932.46
2023-05-06T11:26:10.231Z,101933.98
2023-05-06T11:28:37.425Z,101935.66
2023-05-06T11:31:04.680Z,101933.61
2023-05-06T11:33:36.548Z,101931.41
2023-05-06T11:36:04.212Z,101934.35
2023-05-06T11:38:48.109Z,101933.27
2023-05-06T11:41:15.670Z,101935.41
2023-05-06T11:43:46.784Z,101938.61
2023-05-06T11:46:13.701Z,101936.34
2023-05-06T11:48:40.690Z,101933.66
2023-05-06T11:51:08.365Z,101931.80
2023-05-06T11:53:35.410Z,101926.72
2023-05-06T11:56:02.632Z,101929.02
2023-05-06T11:58:29.644Z,101923.06
2023-05-06T12:01:00.661Z,101921.34
2023-05-06T12:03:28.853Z,101924.34
2023-05-06T12:05:56.296Z,101919.65
2023-05-06T12:08:27.807Z,101920.27
2023-05-06T12:10:56.558Z,101919.05
2023-05-06T12:13:23.585Z,101915.27
2023-05-06T12:15:50.681Z,101919.04
2023-05-06T12:18:17.680Z,101920.25
2023-05-06T12:20:44.713Z,101913.92
2023-05-06T12:23:12.640Z,101916.27
2023-05-06T12:25:40.067Z,101917.81
2023-05-06T12:28:26.972Z,101910.42
2023-05-06T12:30:54.010Z,101911.23
2023-05-06T12:33:21.520Z,101905.98
2023-05-06T12:35:49.110Z,101907.19
2023-05-06T12:38:16.940Z,101908.73
2023-05-06T12:40:45.344Z,101909.65
2023-05-06T12:43:12.562Z,101916.95
2023-05-06T12:45:40.203Z,101912.30
2023-05-06T12:48:07.496Z,101908.25
2023-05-06T12:50:39.658Z,101910.98
2023-05-06T12:53:10.353Z,101910.84
2023-05-06T12:55:38.391Z,101907.64
2023-05-06T12:58:15.876Z,101908.95
2023-05-06T13:00:42.959Z,101909.66
2023-05-06T13:03:11.667Z,101906.31
2023-05-06T13:05:38.805Z,101904.11
2023-05-06T13:08:05.933Z,101901.26
2023-05-06T13:10:32.972Z,101897.21
2023-05-06T13:12:59.943Z,101893.91
2023-05-06T13:15:27.198Z,101895.80
2023-05-06T13:17:54.360Z,101893.06
2023-05-06T13:20:21.773Z,101891.73
2023-05-06T13:22:54.722Z,101886.02
2023-05-06T13:25:22.393Z,101887.52
2023-05-06T13:27:49.573Z,101884.59
2023-05-06T13:30:17.190Z,101883.33
2023-05-06T13:32:44.178Z,101882.25
2023-05-06T13:35:11.570Z,101881.16
2023-05-06T13:37:38.696Z,101882.91
2023-05-06T13:40:06.605Z,101884.98
2023-05-06T13:42:33.704Z,101883.99
2023-05-06T13:45:00.748Z,101883.50
2023-05-06T13:47:27.706Z,101881.44
2023-05-06T13:49:54.640Z,101880.91
2023-05-06T13:52:21.811Z,101879.44
2023-05-06T13:54:49.702Z,101879.83
2023-05-06T13:57:17.497Z,101877.96
2023-05-06T13:59:44.450Z,101880.02
2023-05-06T14:02:11.961Z,101874.30
2023-05-06T14:04:39.041Z,101877.49
2023-05-06T14:07:06.183Z,101878.69
2023-05-06T14:09:33.328Z,101881.64
2023-05-06T14:12:00.657Z,101880.48
2023-05-06T14:14:27.682Z,101880.80
2023-05-06T14:16:55.782Z,101883.67
2023-05-06T14:19:23.542Z,101885.39
2023-05-06T14:21:51.895Z,101885.98
2023-05-06T14:24:18.856Z,101880.65
2023-05-06T14:26:46.293Z,101882.23
2023-05-06T14:29:13.304Z,101879.83
2023-05-06T14:31:40.428Z,101880.16
2023-05-06T14:34:07.551Z,101883.98
2023-05-06T14:36:34.566Z,101879.44
2023-05-06T14:39:01.590Z,101880.86
2023-05-06T14:41:28.690Z,101876.96
2023-05-06T14:43:55.796Z,101874.05
2023-05-06T14:46:23.176Z,101869.41
2023-05-06T14:48:50.791Z,101874.17
2023-05-06T14:51:17.752Z,101871.95
2023-05-06T14:53:45.470Z,101870.52
2023-05-06T14:56:12.532Z,101869.61
2023-05-06T14:58:39.521Z,101870.02
2023-05-06T15:01:07.179Z,101868.95
2023-05-06T15:03:34.244Z,101865.48
2023-05-06T15:06:01.344Z,101867.55
2023-05-06T15:08:28.338Z,101863.58
2023-05-06T15:10:55.533Z,101863.67
2023-05-06T15:13:22.630Z,101862.20
2023-05-06T15:15:49.729Z,101862.46
2023-05-06T15:18:16.690Z,101859.70
2023-05-06T15:20:43.643Z,101860.91
2023-05-06T15:23:10.815Z,101856.22
2023-05-06T15:25:38.247Z,101858.91
2023-05-06T15:28:05.742Z,101858.81
2023-05-06T15:30:32.725Z,101857.85
2023-05-06T15:33:01.475Z,101859.31
2023-05-06T15:35:28.650Z,101859.92
2023-05-06T15:37:58.807Z,101863.04
2023-05-06T15:40:26.329Z,101865.13
2023-05-06T15:42:53.280Z,101863.16
2023-05-06T15:45:21.137Z,101866.17
2023-05-06T15:47:48.467Z,101865.38
2023-05-06T15:50:25.343Z,101869.19
2023-05-06T15:52:59.320Z,101867.53
2023-05-06T15:55:26.751Z,101867.27
2023-05-06T15:57:54.943Z,101866.80
2023-05-06T16:00:22.305Z,101868.42
2023-05-06T16:02:49.438Z,101867.16
2023-05-06T16:05:16.787Z,101866.55
2023-05-06T16:07:43.782Z,101874.66
2023-05-06T16:10:10.908Z,101875.03
2023-05-06T16:12:38.104Z,101877.29
2023-05-06T16:15:05.475Z,101874.98
2023-05-06T16:17:37.626Z,101871.29
2023-05-06T16:20:05.544Z,101876.44
2023-05-06T16:22:32.522Z,101876.09
2023-05-06T16:24:59.492Z,101872.41
2023-05-06T16:27:28.400Z,101872.80
2023-05-06T16:29:55.802Z,101874.36
2023-05-06T16:32:23.439Z,101870.14
2023-05-06T16:34:50.521Z,101874.90
2023-05-06T16:37:17.478Z,101871.27
2023-05-06T16:39:44.420Z,101874.43
2023-05-06T16:42:11.392Z,101874.45
2023-05-06T16:44:38.386Z,101875.45
2023-05-06T16:47:05.968Z,101876.35
2023-05-06T16:49:33.936Z,101878.27
2023-05-06T16:52:00.919Z,101884.66
2023-05-06T16:54:27.907Z,101884.29
2023-05-06T16:56:54.943Z,101889.21
2023-05-06T16:59:22.557Z,101889.36
2023-05-06T17:01:50.530Z,101888.02
2023-05-06T17:04:17.553Z,101892.77
2023-05-06T17:06:44.565Z,101895.94
2023-05-06T17:09:11.592Z,101900.59
2023-05-06T17:11:38.568Z,101901.34
2023-05-06T17:14:05.578Z,101902.33
2023-05-06T17:16:32.578Z,101903.77
2023-05-06T17:18:59.565Z,101906.17
2023-05-06T17:21:27.961Z,101908.38
2023-05-06T17:23:55.015Z,101911.84
2023-05-06T17:26:22.269Z,101913.19
2023-05-06T17:28:50.993Z,101917.17
2023-05-06T17:31:18.600Z,101917.59
2023-05-06T17:33:45.782Z,101920.69
2023-05-06T17:36:13.356Z,101925.04
2023-05-06T17:38:40.314Z,101927.65
2023-05-06T17:41:07.294Z,101932.68
2023-05-06T17:43:34.328Z,101937.02
2023-05-06T17:46:01.547Z,101937.09
2023-05-06T17:48:28.663Z,101943.84
2023-05-06T17:51:00.924Z,101949.95
2023-05-06T17:53:28.403Z,101956.78
2023-05-06T17:55:55.452Z,101952.21
2023-05-06T17:58:22.386Z,101953.47
2023-05-06T18:00:49.317Z,101954.16
2023-05-06T18:03:16.556Z,101960.99
2023-05-06T18:05:43.619Z,101964.96
2023-05-06T18:08:10.671Z,101966.88
2023-05-06T18:10:37.623Z,101972.05
2023-05-06T18:13:04.664Z,101974.92
2023-05-06T18:15:31.674Z,101976.91
2023-05-06T18:17:58.656Z,101982.60
2023-05-06T18:20:25.755Z,101986.21
2023-05-06T18:22:52.715Z,101990.31
2023-05-06T18:25:19.779Z,101991.77
2023-05-06T18:27:47.529Z,101996.23
2023-05-06T18:30:15.170Z,101999.42
2023-05-06T18:32:42.189Z,102006.64
2023-05-06T18:35:11.195Z,102010.00
2023-05-06T18:37:38.672Z,102015.01
2023-05-06T18:40:07.817Z,102016.08
2023-05-06T18:42:35.649Z,102017.70
2023-05-06T18:45:04.718Z,102021.00
2023-05-06T18:47:32.354Z,102020.44
2023-05-06T18:50:00.833Z,102020.92
2023-05-06T18:52:27.819Z,102016.29
2023-05-06T18:54:54.786Z,102017.84
2023-05-06T18:57:21.917Z,102016.05
2023-05-06T18:59:48.898Z,102014.62
2023-05-06T19:02:15.883Z,102017.16
2023-05-06T19:04:43.620Z,102016.52
2023-05-06T19:07:11.288Z,102018.16
2023-05-06T19:09:38.623Z,102023.84
2023-05-06T19:12:05.726Z,102022.14
2023-05-06T19:14:34.714Z,102018.17
2023-05-06T19:17:03.506Z,102020.15
2023-05-06T19:19:31.326Z,102015.66
2023-05-06T19:21:59.186Z,102017.30
2023-05-06T19:24:26.394Z,102020.04
2023-05-06T19:26:53.364Z,102018.55
2023-05-06T19:29:20.321Z,102020.88
2023-05-06T19:31:47.307Z,102017.23
2023-05-06T19:34:14.241Z,102014.90
2023-05-06T19:36:41.310Z,102015.39
2023-05-06T19:39:08.347Z,102013.57
2023-05-06T19:41:35.289Z,102011.53
2023-05-06T19:44:02.250Z,102009.88
2023-05-06T19:46:29.222Z,102005.07
2023-05-06T19:48:58.168Z,102008.83
2023-05-06T19:51:25.112Z,102013.09
2023-05-06T19:53:52.060Z,102017.52
2023-05-06T19:56:19.814Z,102013.77
2023-05-06T19:58:46.822Z,102011.52
2023-05-06T20:01:13.869Z,102009.94
2023-05-06T20:03:41.056Z,102007.20
2023-05-06T20:06:08.141Z,102009.03
2023-05-06T20:08:35.543Z,102002.36
2023-05-06T20:11:02.611Z,102006.85
2023-05-06T20:13:29.627Z,102008.38
2023-05-06T20:15:57.504Z,102007.48
2023-05-06T20:18:25.304Z,102009.05
2023-05-06T20:20:52.280Z,102010.92
2023-05-06T20:23:19.230Z,102004.70
2023-05-06T20:25:46.298Z,101998.83
2023-05-06T20:28:13.450Z,102004.86
2023-05-06T20:30:40.528Z,102009.14
2023-05-06T20:33:08.022Z,102012.48
2023-05-06T20:35:38.542Z,102013.02
2023-05-06T20:38:06.240Z,102012.57
2023-05-06T20:40:34.202Z,102018.07
2023-05-06T20:43:01.258Z,102019.73
2023-05-06T20:45:28.433Z,102012.23
2023-05-06T20:47:55.532Z,102014.82
2023-05-06T20:50:22.487Z,102012.90
2023-05-06T20:52:49.537Z,102007.84
2023-05-06T20:55:16.625Z,102004.48
2023-05-06T20:57:44.097Z,102003.41
2023-05-06T21:00:11.625Z,102002.45
2023-05-06T21:02:41.396Z,102001.98
2023-05-06T21:05:09.306Z,102003.52
2023-05-06T21:07:36.477Z,102001.34
2023-05-06T21:10:05.982Z,102004.40
2023-05-06T21:12:33.618Z,102005.55
2023-05-06T21:15:00.870Z,102004.30
2023-05-06T21:17:28.491Z,101999.08
2023-05-06T21:19:55.562Z,102004.15
2023-05-06T21:22:25.863Z,102005.30
2023-05-06T21:24:52.898Z,102004.90
2023-05-06T21:27:19.858Z,102007.53
2023-05-06T21:29:46.797Z,102010.22
2023-05-06T21:32:13.857Z,102010.19
2023-05-06T21:34:40.869Z,102005.89
2023-05-06T21:37:07.887Z,102008.20
2023-05-06T21:39:34.873Z,102004.75
2023-05-06T21:42:02.143Z,102002.58
2023-05-06T21:44:29.117Z,102003.71
2023-05-06T21:46:56.320Z,102002.59
2023-05-06T21:49:23.493Z,102005.80
2023-05-06T21:51:50.429Z,102006.41
2023-05-06T21:54:17.514Z,102005.92
2023-05-06T21:56:44.813Z,102005.64
2023-05-06T21:59:11.835Z,102009.58
2023-05-06T22:01:39.020Z,102007.88
2023-05-06T22:04:11.497Z,102011.42
2023-05-06T22:06:39.489Z,102006.73
2023-05-06T22:09:09.799Z,102005.20
2023-05-06T22:11:38.540Z,102006.13
2023-05-06T22:14:06.908Z,102003.84
2023-05-06T22:16:35.570Z,102003.90
2023-05-06T22:19:04.136Z,102000.98
2023-05-06T22:21:33.038Z,102004.23
2023-05-06T22:24:00.083Z,102003.30
2023-05-06T22:26:29.949Z,101997.68
2023-05-06T22:28:56.929Z,101995.80
2023-05-06T22:31:24.904Z,102001.30
2023-05-06T22:33:55.575Z,102003.52
2023-05-06T22:36:22.753Z,102004.09
2023-05-06T22:38:50.006Z,102004.14
2023-05-06T22:41:17.583Z,102001.89
2023-05-06T22:43:44.533Z,102002.65
2023-05-06T22:46:11.508Z,102000.11
2023-05-06T22:48:38.518Z,102002.25
2023-05-06T22:51:05.609Z,101995.45
2023-05-06T22:53:32.590Z,101993.06
2023-05-06T22:55:59.707Z,101993.46
2023-05-06T22:58:26.684Z,101993.18
2023-05-06T23:00:53.783Z,101991.69
2023-05-06T23:03:22.609Z,101987.63
2023-05-06T23:05:49.774Z,101985.77
2023-05-06T23:08:16.739Z,101989.53
2023-05-06T23:10:44.217Z,101991.88
2023-05-06T23:13:12.207Z,101993.17
2023-05-06T23:15:40.094Z,101992.35
2023-05-06T23:18:07.296Z,101992.41
2023-05-06T23:20:34.357Z,101993.95
2023-05-06T23:23:01.362Z,101990.10
2023-05-06T23:25:28.329Z,101989.90
2023-05-06T23:27:55.418Z,101988.89
2023-05-06T23:30:22.534Z,101985.88
2023-05-06T23:32:49.617Z,101986.44
2023-05-06T23:35:16.722Z,101984.70
2023-05-06T23:37:43.658Z,101989.62
2023-05-06T23:40:12.723Z,101985.31
2023-05-06T23:42:40.173Z,101985.78
2023-05-06T23:45:07.706Z,101989.54
2023-05-06T23:47:34.696Z,101990.34
2023-05-06T23:50:01.680Z,101992.97
2023-05-06T23:52:28.629Z,101989.27
2023-05-06T23:54:55.725Z,101992.32
2023-05-06T23:57:22.762Z,101989.54
2023-05-06T23:59:49.744Z,101995.02
